Accueil
METAR-TAF:

METAR-TAF

Aéroports :

Londres, Angleterre

Aéroport de Londres-City

latitude: 51-30N, longitude: 000-03E, altitude: 5 m

Observation

Le bulletin a été fait il y a 40 minutes, à 05:50 UTC
Vent 5 kt de ouest/sud-ouest
Température 0°C
Humidité 80%
Pression 1005 hPa
Visibilité 10 km ou plus

METAR: EGLC 120550Z AUTO 24005KT 9999 NCD M00/M03 Q1005

Heure: 06:30 (06:30 UTC)

Prévision

Le bulletin a été fait il y a 1 heure et 34 minutes, à 04:56 UTC
Prévision valable du 12 à 06 UTC au 12 à 15 UTC
Vent 7 kt de sud-ouest
Visibilité 10 km ou plus
Quelques nuages à une hauteur de 2000 ft

TAF: EGLC 120456Z 1206/1215 23007KT 9999 FEW020

Observations et prévisions météorologiques de plus de 4000 aéroports (messages METAR et TAF).

Les stations disponibles sont représentées par des disques jaunes et rouges sur la carte.

Passer la souris dessus pour voir le nom de la station.

Cliquer dessus pour voir les observations et prévisions météorologiques.

Pour changer de carte: cliquez sur les boutons verts avec une croix noire pour zoomer, sur le bouton vert avec un tiret pour effectuer un zoom arrière, ou sur les flèches vertes pour les cartes adjacentes.


METAR-TAF: